»·PEaware :: VIR7X EGLL-KLAX

VIR7X :: EGLL-KLAX

FLIGHT INFORMATION

Flight Status: Arrived
Operator:
Virgin Atlantic Airways
More flights by this operator :: More flights under this callsign
Pilot: Derek H. (756)
Aircraft: BOEING 747-400 (WINGLETS)
(B744)
More flights by this aircraft type
Origin: EGLL Heathrow
United Kingdom
Destination: KLAX Los Angeles Intl
United States
More flights between these airports :: More routes between these airports
Route: +BUZAD T420 WELIN UT420 TNT UL28 RODOL UM65 TENSO UL603 REMSI UP6 MIMKU DCT AGORI 5815N 5920N 6130N 6340N 6550N EPMAN NCAE YYQ YTH J530 YQD J489 VLN KATEN GGW BIL FFU J9 MLF J107 OVETO J107 HEC RIIVR2
File this flight plan on PilotEdge
Remarks: SEL / ADBS Virgin Atlantic Airways / / Real World Pilot / / All Charts / V /
Altitude:
(Current/Filed)
34,000ft
Speed:
(Current/Filed)
490kts
Departed: 25-Jul-12 12:10 AM
Arrived: 25-Jul-12 10:41 AM
Distance/Time
Traveled:
4727nm/10:30
Distance/Time
To Go:
Arrived

Flight Plot

Page will automatically refresh every two minutes.


Map Options




Map Legend


Flown Route
Filed Route
Departure Airport
Arrival Airport
Navaid (VOR, NDB)
Fix

Horizontal Profiles

Position Reports

Time Latitude Longitude Heading Altitude Ground
Speed
25-Jul-12 00:01 51.477489 -0.488704 89 91ft 0kts
25-Jul-12 00:02 51.477489 -0.488704 89 91ft 0kts
25-Jul-12 00:03 51.477489 -0.488704 89 91ft 0kts
25-Jul-12 00:04 51.477489 -0.488704 89 91ft 0kts
25-Jul-12 00:05 51.477489 -0.488704 89 91ft 0kts
25-Jul-12 00:06 51.477489 -0.488704 89 91ft 0kts
25-Jul-12 00:07 51.477489 -0.488704 89 91ft 0kts
25-Jul-12 00:08 51.477489 -0.488704 89 91ft 0kts
25-Jul-12 00:09 51.477576 -0.466145 89 92ft 180kts
25-Jul-12 00:10 51.489393 -0.371415 67 4085ft 205kts
25-Jul-12 00:11 51.518058 -0.283306 59 6273ft 245kts
25-Jul-12 00:12 51.571009 -0.226214 357 8346ft 252kts
25-Jul-12 00:13 51.640520 -0.261295 329 10029ft 294kts
25-Jul-12 00:14 51.721025 -0.337888 326 11559ft 381kts
25-Jul-12 00:15 51.816166 -0.430171 326 14977ft 409kts
25-Jul-12 00:16 51.915884 -0.526582 325 18002ft 426kts
25-Jul-12 00:17 52.019519 -0.627823 325 20509ft 440kts
25-Jul-12 00:18 52.125644 -0.731944 324 22615ft 451kts
25-Jul-12 00:19 52.234488 -0.839542 324 24290ft 462kts
25-Jul-12 00:20 52.345638 -0.950317 324 25808ft 472kts
25-Jul-12 00:21 52.459308 -1.063838 324 26981ft 481kts
25-Jul-12 00:22 52.575004 -1.180098 323 27947ft 490kts
25-Jul-12 00:23 52.691828 -1.298408 323 29111ft 491kts
25-Jul-12 00:24 52.808489 -1.418014 323 30076ft 492kts
25-Jul-12 00:25 52.925097 -1.537624 323 31137ft 489kts
25-Jul-12 00:26 53.040610 -1.656178 323 31968ft 486kts
25-Jul-12 00:27 53.155772 -1.776060 322 32585ft 486kts
25-Jul-12 00:28 53.271175 -1.892971 325 33324ft 483kts
25-Jul-12 00:29 53.388078 -2.004865 325 33857ft 482kts
25-Jul-12 00:30 53.485451 -2.097837 325 34125ft 482kts
25-Jul-12 00:31 53.597032 -2.221955 303 34129ft 466kts
25-Jul-12 00:32 53.649081 -2.419215 287 34127ft 458kts
25-Jul-12 00:33 53.694366 -2.620178 287 34112ft 451kts
25-Jul-12 00:34 53.739546 -2.819211 287 34103ft 453kts
25-Jul-12 00:35 53.784011 -3.018846 287 34117ft 452kts
25-Jul-12 00:36 53.828254 -3.219954 287 34123ft 453kts
25-Jul-12 00:37 53.872344 -3.420285 287 34115ft 453kts
25-Jul-12 00:38 53.916202 -3.621036 287 34114ft 453kts
25-Jul-12 00:39 53.961606 -3.821692 293 34128ft 456kts
25-Jul-12 00:40 54.027517 -4.007260 298 34138ft 454kts
25-Jul-12 00:41 54.094817 -4.189713 298 34149ft 454kts
25-Jul-12 00:42 54.162215 -4.372317 297 34159ft 454kts
25-Jul-12 00:43 54.228135 -4.557322 297 34168ft 453kts
25-Jul-12 00:44 54.293445 -4.742114 297 34174ft 453kts
25-Jul-12 00:45 54.358471 -4.927624 297 34180ft 453kts
25-Jul-12 00:46 54.423443 -5.113469 297 34187ft 453kts
25-Jul-12 00:47 54.488895 -5.299847 297 34192ft 453kts
25-Jul-12 00:48 54.555377 -5.487266 297 34203ft 458kts
25-Jul-12 00:49 54.622072 -5.675095 297 34208ft 458kts
25-Jul-12 00:50 54.688060 -5.864716 296 34206ft 458kts
25-Jul-12 00:51 54.753510 -6.054253 296 34214ft 458kts
25-Jul-12 00:52 54.819402 -6.243735 296 34223ft 458kts
25-Jul-12 00:53 54.884488 -6.434317 296 34222ft 458kts
25-Jul-12 00:54 54.950004 -6.625620 296 34223ft 457kts
25-Jul-12 00:55 55.013404 -6.818066 295 34225ft 456kts
25-Jul-12 00:56 55.076825 -7.010740 295 34225ft 457kts
25-Jul-12 00:57 55.140731 -7.204151 295 34226ft 457kts
25-Jul-12 00:58 55.202946 -7.398575 294 34219ft 456kts
25-Jul-12 00:59 55.265287 -7.593068 295 34209ft 457kts
25-Jul-12 01:00 55.327797 -7.787693 295 34198ft 457kts
25-Jul-12 01:01 55.390275 -7.983457 294 34188ft 457kts
25-Jul-12 01:02 55.451365 -8.179845 294 34178ft 456kts
25-Jul-12 01:03 55.512077 -8.376728 294 34168ft 456kts
25-Jul-12 01:04 55.574114 -8.573852 294 34164ft 456kts
25-Jul-12 01:05 55.634519 -8.771732 294 34161ft 456kts
25-Jul-12 01:06 55.694381 -8.970282 294 34160ft 456kts
25-Jul-12 01:07 55.744803 -9.135710 293 34159ft 456kts
25-Jul-12 01:08 55.804275 -9.335970 293 34158ft 456kts
25-Jul-12 01:09 55.863821 -9.535660 294 34156ft 456kts
25-Jul-12 01:10 55.922942 -9.736011 293 34155ft 454kts
25-Jul-12 01:11 55.981320 -9.936173 293 34190ft 454kts
25-Jul-12 01:12 56.046505 -10.131722 297 34201ft 456kts
25-Jul-12 01:13 56.113641 -10.325230 297 34207ft 456kts
25-Jul-12 01:14 56.180497 -10.519155 297 34210ft 457kts
25-Jul-12 01:15 56.248480 -10.712293 297 34209ft 455kts
25-Jul-12 01:16 56.315303 -10.908310 297 34021ft 456kts
25-Jul-12 01:17 56.381710 -11.104197 299 34018ft 459kts
25-Jul-12 01:18 56.447367 -11.299515 299 33996ft 456kts
25-Jul-12 01:19 56.512425 -11.494448 296 34002ft 448kts
25-Jul-12 01:20 56.577869 -11.687625 296 34001ft 448kts
25-Jul-12 01:21 56.641618 -11.882563 295 33999ft 447kts
25-Jul-12 01:22 56.705163 -12.078707 296 33999ft 448kts
25-Jul-12 01:23 56.769030 -12.274125 295 33999ft 448kts
25-Jul-12 01:24 56.831816 -12.470840 294 33998ft 447kts
25-Jul-12 01:25 56.894582 -12.667738 294 33998ft 447kts
25-Jul-12 01:26 56.957105 -12.865326 294 33999ft 447kts
25-Jul-12 01:27 57.029257 -13.054021 306 34001ft 457kts
25-Jul-12 01:28 57.116277 -13.225082 307 33998ft 457kts
25-Jul-12 01:29 57.203556 -13.396050 307 33998ft 457kts
25-Jul-12 01:30 57.291576 -13.566362 307 33999ft 457kts
25-Jul-12 01:31 57.378666 -13.738457 306 33999ft 457kts
25-Jul-12 01:32 57.465576 -13.912267 307 33999ft 457kts
25-Jul-12 01:33 57.552880 -14.084895 306 33998ft 456kts
25-Jul-12 01:34 57.639039 -14.259528 306 33998ft 456kts
25-Jul-12 01:35 57.725399 -14.434323 306 33999ft 457kts
25-Jul-12 01:36 57.811492 -14.609926 306 33999ft 456kts
25-Jul-12 01:37 57.896973 -14.786770 307 33997ft 457kts
25-Jul-12 01:38 57.983687 -14.966644 300 33998ft 454kts
25-Jul-12 01:39 58.039191 -15.177484 289 34060ft 448kts
25-Jul-12 01:40 58.087058 -15.394526 288 34070ft 447kts
25-Jul-12 01:41 58.134637 -15.612029 288 34080ft 447kts
25-Jul-12 01:42 58.182961 -15.829344 288 34082ft 446kts
25-Jul-12 01:43 58.229442 -16.047816 287 34080ft 443kts
25-Jul-12 01:44 58.276034 -16.265500 288 34079ft 444kts
25-Jul-12 01:45 58.322069 -16.484526 287 34078ft 444kts
25-Jul-12 01:46 58.367652 -16.702984 289 34078ft 444kts
25-Jul-12 01:48 58.461036 -17.156412 289 34082ft 463kts
25-Jul-12 01:49 58.506953 -17.387109 291 34082ft 461kts
25-Jul-12 01:50 58.554400 -17.615462 286 34086ft 462kts
25-Jul-12 01:51 58.600028 -17.850665 287 34082ft 472kts
25-Jul-12 01:52 58.653461 -18.122154 288 34070ft 454kts
25-Jul-12 01:53 58.682142 -18.272378 287 34070ft 448kts
25-Jul-12 01:54 58.725004 -18.500092 285 34071ft 454kts
25-Jul-12 01:55 58.768522 -18.724912 283 34069ft 441kts
25-Jul-12 01:56 58.809301 -18.946334 287 34058ft 439kts
25-Jul-12 01:57 58.858283 -19.213781 290 34052ft 463kts
25-Jul-12 01:58 58.901648 -19.449425 286 34052ft 454kts
25-Jul-12 02:02 59.095556 -20.387132 294 33934ft 463kts
25-Jul-12 02:03 59.151364 -20.615382 295 33924ft 465kts
25-Jul-12 02:04 59.199442 -20.807239 291 33916ft 476kts
25-Jul-12 02:05 59.264307 -21.080141 291 33913ft 474kts
25-Jul-12 02:06 59.320725 -21.314758 291 33910ft 474kts
25-Jul-12 02:07 59.366751 -21.510839 291 33909ft 474kts
25-Jul-12 02:08 59.420940 -21.743512 292 33910ft 464kts
25-Jul-12 02:09 59.475309 -21.974784 292 33908ft 465kts
25-Jul-12 02:10 59.528460 -22.208228 292 33910ft 466kts
25-Jul-12 02:11 59.581232 -22.441517 293 33908ft 465kts
25-Jul-12 02:12 59.634260 -22.674477 292 34071ft 464kts
25-Jul-12 02:13 59.685502 -22.909055 291 34082ft 464kts
25-Jul-12 02:14 59.737616 -23.144170 292 34093ft 463kts
25-Jul-12 02:15 59.788171 -23.380224 291 34100ft 464kts
25-Jul-12 02:16 59.838443 -23.616680 292 34099ft 464kts
25-Jul-12 02:17 59.889594 -23.853666 291 34100ft 463kts
25-Jul-12 02:18 59.938669 -24.091971 290 34105ft 464kts
25-Jul-12 02:19 59.988463 -24.330848 291 34103ft 465kts
25-Jul-12 02:20 60.037224 -24.569868 291 34102ft 463kts
25-Jul-12 02:21 60.085222 -24.810054 290 34102ft 463kts
25-Jul-12 02:22 60.134102 -25.050685 290 34102ft 464kts
25-Jul-12 02:23 60.173252 -25.252093 290 34101ft 463kts
25-Jul-12 02:24 60.228283 -25.534237 291 34100ft 463kts
25-Jul-12 02:25 60.267772 -25.736360 289 34093ft 464kts
25-Jul-12 02:26 60.313530 -25.980765 289 34089ft 465kts
25-Jul-12 02:27 60.360216 -26.225877 289 34085ft 465kts
25-Jul-12 02:28 60.405352 -26.471592 288 34081ft 465kts
25-Jul-12 02:29 60.450226 -26.717774 289 34080ft 465kts
25-Jul-12 02:30 60.495708 -26.964140 288 34073ft 466kts
25-Jul-12 02:31 60.539771 -27.211791 288 34069ft 466kts
25-Jul-12 02:32 60.584053 -27.460480 288 34065ft 466kts
25-Jul-12 02:33 60.627587 -27.709384 287 34061ft 466kts
25-Jul-12 02:34 60.669778 -27.959406 287 34056ft 466kts
25-Jul-12 02:35 60.712870 -28.209332 287 34052ft 466kts
25-Jul-12 02:36 60.754208 -28.460684 287 34047ft 466kts
25-Jul-12 02:37 60.796436 -28.712847 287 34044ft 466kts
25-Jul-12 02:38 60.837368 -28.965161 286 34041ft 466kts
25-Jul-12 02:39 60.877373 -29.218626 286 34037ft 466kts
25-Jul-12 02:40 60.918051 -29.471966 286 34034ft 466kts
25-Jul-12 02:41 60.957657 -29.726276 286 34030ft 466kts
25-Jul-12 02:42 60.998066 -29.980493 291 34027ft 467kts
25-Jul-12 02:43 61.055180 -30.221965 295 34023ft 467kts
25-Jul-12 02:44 61.113929 -30.463441 294 34019ft 468kts
25-Jul-12 02:45 61.173216 -30.703716 296 34015ft 468kts
25-Jul-12 02:46 61.231977 -30.945346 294 34013ft 468kts
25-Jul-12 02:47 61.289346 -31.188573 294 34009ft 468kts
25-Jul-12 02:48 61.347659 -31.431485 294 34004ft 468kts
25-Jul-12 02:49 61.404754 -31.675687 294 34004ft 467kts
25-Jul-12 02:50 61.461075 -31.920565 295 34016ft 467kts
25-Jul-12 02:51 61.518099 -32.165856 295 34022ft 460kts
25-Jul-12 02:52 61.572837 -32.409341 298 34021ft 464kts
25-Jul-12 02:53 61.628584 -32.653106 299 33930ft 463kts
25-Jul-12 02:54 61.682745 -32.899246 298 33920ft 463kts
25-Jul-12 02:55 61.736010 -33.147058 298 33914ft 462kts
25-Jul-12 02:56 61.790407 -33.394596 298 33914ft 462kts
25-Jul-12 02:57 61.843179 -33.643227 298 33915ft 462kts
25-Jul-12 02:58 61.896108 -33.891952 298 33934ft 459kts
25-Jul-12 02:59 61.947923 -34.141276 297 33950ft 461kts
25-Jul-12 03:00 61.998699 -34.392183 297 33960ft 461kts
25-Jul-12 03:01 62.050793 -34.641852 297 33962ft 461kts
25-Jul-12 03:02 62.101148 -34.895097 296 33964ft 461kts
25-Jul-12 03:03 62.151004 -35.147901 298 33964ft 460kts
25-Jul-12 03:04 62.201052 -35.401083 296 33964ft 461kts
25-Jul-12 03:05 62.249974 -35.655916 296 33964ft 461kts
25-Jul-12 03:06 62.299461 -35.910522 296 33964ft 461kts
25-Jul-12 03:07 62.347391 -36.167405 295 33964ft 462kts
25-Jul-12 03:08 62.394711 -36.426183 296 33963ft 461kts
25-Jul-12 03:09 62.443289 -36.682920 295 33964ft 462kts
25-Jul-12 03:10 62.489647 -36.942591 294 33962ft 462kts
25-Jul-12 03:11 62.537122 -37.201306 295 33963ft 461kts
25-Jul-12 03:12 62.583046 -37.462084 294 33964ft 462kts
25-Jul-12 03:13 62.628273 -37.724196 294 33973ft 461kts
25-Jul-12 03:14 62.674014 -37.985149 294 33974ft 461kts
25-Jul-12 03:15 62.717872 -38.248182 294 33975ft 459kts
25-Jul-12 03:16 62.761337 -38.508705 296 33975ft 456kts
25-Jul-12 03:17 62.805004 -38.769392 294 33975ft 457kts
25-Jul-12 03:18 62.847018 -39.032273 294 33975ft 457kts
25-Jul-12 03:19 62.889729 -39.295036 294 33975ft 457kts
25-Jul-12 03:20 62.931269 -39.559145 294 33976ft 457kts
25-Jul-12 03:21 62.972435 -39.823983 293 33977ft 457kts
25-Jul-12 03:22 63.019523 -40.082269 303 33977ft 450kts
25-Jul-12 03:23 63.080164 -40.325733 302 33977ft 451kts
25-Jul-12 03:24 63.139621 -40.570152 302 33977ft 450kts
25-Jul-12 03:25 63.199879 -40.813807 303 33976ft 450kts
25-Jul-12 03:26 63.258729 -41.060072 301 33977ft 451kts
25-Jul-12 03:27 63.316699 -41.308113 301 33977ft 451kts
25-Jul-12 03:28 63.375898 -41.554748 302 33979ft 451kts
25-Jul-12 03:29 63.433519 -41.804011 301 33979ft 451kts
25-Jul-12 03:30 63.490644 -42.050648 297 33976ft 426kts
25-Jul-12 03:31 63.545630 -42.289351 295 33980ft 430kts
25-Jul-12 03:32 63.599132 -42.530542 295 33981ft 431kts
25-Jul-12 03:33 63.653667 -42.771036 295 33981ft 431kts
25-Jul-12 03:34 63.706887 -43.014231 294 33984ft 431kts
25-Jul-12 03:35 63.758946 -43.258281 294 33982ft 430kts
25-Jul-12 03:36 63.812223 -43.502467 294 33982ft 430kts
25-Jul-12 03:37 63.855652 -43.706537 294 33982ft 430kts
25-Jul-12 03:38 63.906577 -43.952954 293 33982ft 430kts
25-Jul-12 03:39 63.958576 -44.198713 293 33983ft 430kts
25-Jul-12 03:40 64.008821 -44.446687 293 33984ft 430kts
25-Jul-12 03:41 64.058950 -44.696134 293 33984ft 430kts
25-Jul-12 03:42 64.109814 -44.944131 292 33984ft 430kts
25-Jul-12 03:43 64.159610 -45.199658 291 33989ft 440kts
25-Jul-12 03:44 64.209787 -45.457211 292 33990ft 440kts
25-Jul-12 03:45 64.260195 -45.714054 291 33992ft 440kts
25-Jul-12 03:46 64.308727 -45.973154 290 33991ft 440kts
25-Jul-12 03:47 64.358045 -46.231949 291 33991ft 440kts
25-Jul-12 03:48 64.406036 -46.492448 290 33989ft 440kts
25-Jul-12 03:49 64.453655 -46.754565 290 33989ft 439kts
25-Jul-12 03:50 64.501903 -47.015720 290 33989ft 439kts
25-Jul-12 03:51 64.549133 -47.278160 290 33985ft 439kts
25-Jul-12 03:52 64.595027 -47.542228 291 33985ft 440kts
25-Jul-12 03:53 64.642123 -47.805561 289 33985ft 439kts
25-Jul-12 03:54 64.686920 -48.071463 289 33984ft 439kts
25-Jul-12 03:55 64.732146 -48.337232 290 33982ft 439kts
25-Jul-12 03:56 64.777250 -48.606799 288 33981ft 439kts
25-Jul-12 03:57 64.820767 -48.874866 288 33981ft 439kts
25-Jul-12 03:58 64.865070 -49.143826 288 33980ft 439kts
25-Jul-12 03:59 64.907737 -49.413414 288 33979ft 439kts
25-Jul-12 04:00 64.950205 -49.683595 288 33978ft 439kts
25-Jul-12 04:01 64.992785 -49.954195 288 33976ft 439kts
25-Jul-12 04:02 65.030909 -50.228619 285 33975ft 438kts
25-Jul-12 04:03 65.067033 -50.504574 285 33974ft 437kts
25-Jul-12 04:04 65.103155 -50.781114 285 33973ft 437kts
25-Jul-12 04:05 65.140365 -51.056975 285 33973ft 438kts
25-Jul-12 04:06 65.175161 -51.335022 284 33973ft 438kts
25-Jul-12 04:07 65.210476 -51.614107 286 33974ft 438kts
25-Jul-12 04:08 65.245548 -51.892594 284 33975ft 438kts
25-Jul-12 04:09 65.278728 -52.172813 284 33975ft 438kts
25-Jul-12 04:10 65.312840 -52.452768 284 33975ft 438kts
25-Jul-12 04:11 65.345871 -52.733607 283 33967ft 437kts
25-Jul-12 04:12 65.377447 -53.015764 283 33963ft 437kts
25-Jul-12 04:13 65.410492 -53.298381 283 33962ft 438kts
25-Jul-12 04:14 65.441387 -53.581715 283 33961ft 438kts
25-Jul-12 04:15 65.467024 -53.823151 284 33960ft 457kts
25-Jul-12 04:16 65.500707 -54.127096 284 33959ft 474kts
25-Jul-12 04:17 65.533499 -54.435765 283 33956ft 473kts
25-Jul-12 04:18 65.565824 -54.744291 284 33956ft 473kts
25-Jul-12 04:19 65.596791 -55.054065 283 33956ft 473kts
25-Jul-12 04:20 65.626278 -55.366095 282 33955ft 473kts
25-Jul-12 04:21 65.657306 -55.676475 283 33955ft 473kts
25-Jul-12 04:22 65.685660 -55.988619 282 33954ft 473kts
25-Jul-12 04:23 65.714267 -56.301236 283 33954ft 473kts
25-Jul-12 04:24 65.742382 -56.614277 281 33953ft 473kts
25-Jul-12 04:25 65.768782 -56.928633 281 33956ft 473kts
25-Jul-12 04:26 65.796384 -57.243661 281 33955ft 473kts
25-Jul-12 04:27 65.821687 -57.559365 280 33955ft 476kts
25-Jul-12 04:28 65.847618 -57.881071 280 33955ft 482kts
25-Jul-12 04:29 65.872826 -58.203517 278 33955ft 482kts
25-Jul-12 04:30 65.896426 -58.527183 278 33955ft 482kts
25-Jul-12 04:31 65.921255 -58.850449 278 33959ft 483kts
25-Jul-12 04:32 65.943712 -59.175023 277 33954ft 482kts
25-Jul-12 04:33 65.965759 -59.500975 277 33955ft 482kts
25-Jul-12 04:34 65.987824 -59.826112 278 33956ft 482kts
25-Jul-12 04:35 65.997285 -60.153805 265 33879ft 485kts
25-Jul-12 04:36 65.989748 -60.487411 264 33864ft 488kts
25-Jul-12 04:37 65.981831 -60.820691 264 33854ft 488kts
25-Jul-12 04:38 65.975409 -61.153947 264 33849ft 488kts
25-Jul-12 04:39 65.966012 -61.486830 264 33848ft 488kts
25-Jul-12 04:40 65.957612 -61.820621 264 33851ft 488kts
25-Jul-12 04:41 65.947501 -62.152569 263 33858ft 487kts
25-Jul-12 04:42 65.935849 -62.484251 263 33868ft 487kts
25-Jul-12 04:43 65.926074 -62.815969 262 33878ft 487kts
25-Jul-12 04:44 65.913130 -63.146304 262 33888ft 487kts
25-Jul-12 04:45 65.901334 -63.475063 262 33894ft 470kts
25-Jul-12 04:46 65.887910 -63.798168 261 33905ft 482kts
25-Jul-12 04:47 65.873092 -64.123303 262 33904ft 480kts
25-Jul-12 04:48 65.859771 -64.448743 261 33897ft 480kts
25-Jul-12 04:49 65.843630 -64.774180 260 33892ft 480kts
25-Jul-12 04:50 65.828508 -65.098508 261 33886ft 480kts
25-Jul-12 04:51 65.811466 -65.422180 260 33882ft 480kts
25-Jul-12 04:52 65.793398 -65.745179 261 33881ft 480kts
25-Jul-12 04:53 65.776596 -66.068516 259 33882ft 480kts
25-Jul-12 04:54 65.757093 -66.390440 259 33881ft 480kts
25-Jul-12 04:55 65.738549 -66.713649 259 33882ft 480kts
25-Jul-12 04:57 65.696793 -67.354969 259 33885ft 480kts
25-Jul-12 04:58 65.680183 -67.622367 258 33886ft 479kts
25-Jul-12 04:59 65.657541 -67.941738 258 33877ft 479kts
25-Jul-12 05:00 65.635563 -68.261159 258 33867ft 480kts
25-Jul-12 05:01 65.612149 -68.579412 257 33856ft 479kts
25-Jul-12 05:02 65.587588 -68.897011 257 33846ft 479kts
25-Jul-12 05:03 65.564015 -69.214525 256 33836ft 479kts
25-Jul-12 05:04 65.538276 -69.531908 256 33826ft 479kts
25-Jul-12 05:05 65.512339 -69.847882 256 33826ft 480kts
25-Jul-12 05:06 65.475774 -70.156829 244 33818ft 482kts
25-Jul-12 05:07 65.426637 -70.456511 245 33815ft 481kts
25-Jul-12 05:08 65.377850 -70.755836 245 33811ft 481kts
25-Jul-12 05:09 65.330637 -71.057533 245 33806ft 480kts
25-Jul-12 05:10 65.281215 -71.355134 244 33807ft 481kts
25-Jul-12 05:11 65.232239 -71.652697 245 33781ft 481kts
25-Jul-12 05:12 65.182165 -71.948405 243 33766ft 481kts
25-Jul-12 05:13 65.130901 -72.242447 244 33755ft 484kts
25-Jul-12 05:14 65.079336 -72.547062 245 33751ft 499kts
25-Jul-12 05:15 65.024670 -72.849619 245 33747ft 499kts
25-Jul-12 05:16 64.970935 -73.154133 245 33746ft 499kts
25-Jul-12 05:17 64.915837 -73.455255 244 33745ft 499kts
25-Jul-12 05:18 64.859522 -73.754451 246 33743ft 500kts
25-Jul-12 05:19 64.804232 -74.054238 244 33743ft 499kts
25-Jul-12 05:20 64.746873 -74.351195 243 33743ft 499kts
25-Jul-12 05:21 64.690108 -74.649165 243 33741ft 498kts
25-Jul-12 05:22 64.631215 -74.945489 243 33729ft 500kts
25-Jul-12 05:23 64.572982 -75.240922 244 33718ft 500kts
25-Jul-12 05:24 64.513846 -75.534494 242 33719ft 500kts
25-Jul-12 05:25 64.451036 -75.823054 242 33720ft 500kts
25-Jul-12 05:26 64.391238 -76.115614 242 33722ft 500kts
25-Jul-12 05:27 64.329868 -76.404508 241 33724ft 499kts
25-Jul-12 05:28 64.268692 -76.692961 242 33725ft 500kts
25-Jul-12 05:29 64.206345 -76.979143 241 33725ft 500kts
25-Jul-12 05:30 64.143603 -77.265668 242 33728ft 501kts
25-Jul-12 05:31 64.081001 -77.550582 240 33720ft 500kts
25-Jul-12 05:32 64.016096 -77.832283 240 33718ft 500kts
25-Jul-12 05:33 63.952597 -78.116415 240 33712ft 500kts
25-Jul-12 05:34 63.887387 -78.396830 240 33708ft 501kts
25-Jul-12 05:35 63.831993 -78.632296 241 33711ft 501kts
25-Jul-12 05:36 63.766193 -78.910943 239 33722ft 501kts
25-Jul-12 05:37 63.699169 -79.188585 239 33735ft 501kts
25-Jul-12 05:38 63.632950 -79.465376 239 33737ft 502kts
25-Jul-12 05:39 63.563557 -79.743831 240 33742ft 509kts
25-Jul-12 05:40 63.494774 -80.023745 240 33748ft 510kts
25-Jul-12 05:41 63.424648 -80.300329 240 33754ft 510kts
25-Jul-12 05:42 63.355149 -80.577215 239 33761ft 513kts
25-Jul-12 05:43 63.285818 -80.855232 241 33768ft 513kts
25-Jul-12 05:44 63.215507 -81.132701 240 33777ft 513kts
25-Jul-12 05:45 63.145586 -81.408380 241 33781ft 512kts
25-Jul-12 05:46 63.074028 -81.681379 239 33786ft 512kts
25-Jul-12 05:47 63.001832 -81.952979 239 33791ft 512kts
25-Jul-12 05:48 62.930880 -82.226574 239 33794ft 512kts
25-Jul-12 05:49 62.858044 -82.495755 239 33798ft 512kts
25-Jul-12 05:50 62.784986 -82.762363 239 33871ft 510kts
25-Jul-12 05:51 62.711790 -83.027599 239 33881ft 509kts
25-Jul-12 05:52 62.638402 -83.292964 240 33891ft 509kts
25-Jul-12 05:53 62.564606 -83.556236 237 33901ft 509kts
25-Jul-12 05:54 62.488329 -83.815908 237 33906ft 510kts
25-Jul-12 05:55 62.411706 -84.077587 238 33910ft 510kts
25-Jul-12 05:56 62.335853 -84.336275 237 33916ft 510kts
25-Jul-12 05:57 62.259899 -84.595213 236 33921ft 510kts
25-Jul-12 05:58 62.182398 -84.850434 237 33926ft 510kts
25-Jul-12 05:59 62.105736 -85.106090 238 33930ft 510kts
25-Jul-12 06:00 62.028804 -85.360777 236 33936ft 510kts
25-Jul-12 06:01 61.949365 -85.612827 235 33939ft 509kts
25-Jul-12 06:02 61.871325 -85.864800 236 33940ft 510kts
25-Jul-12 06:03 61.791546 -86.116151 237 33776ft 512kts
25-Jul-12 06:04 61.712730 -86.368026 240 33764ft 514kts
25-Jul-12 06:05 61.631056 -86.616482 238 33754ft 515kts
25-Jul-12 06:06 61.549661 -86.864883 240 33753ft 514kts
25-Jul-12 06:07 61.467938 -87.111984 237 33751ft 516kts
25-Jul-12 06:08 61.384831 -87.356863 238 33749ft 516kts
25-Jul-12 06:09 61.302262 -87.603106 237 33748ft 516kts
25-Jul-12 06:10 61.218556 -87.844495 239 33741ft 511kts
25-Jul-12 06:11 61.136598 -88.087089 240 33740ft 513kts
25-Jul-12 06:12 61.067009 -88.287511 239 33738ft 514kts
25-Jul-12 06:14 60.897959 -88.763869 239 33736ft 514kts
25-Jul-12 06:15 60.812975 -89.000465 238 33734ft 515kts
25-Jul-12 06:16 60.728749 -89.237484 239 33732ft 514kts
25-Jul-12 06:17 60.642942 -89.471989 238 33732ft 515kts
25-Jul-12 06:18 60.555966 -89.704171 238 33732ft 515kts
25-Jul-12 06:19 60.469512 -89.933976 238 33730ft 506kts
25-Jul-12 06:20 60.383590 -90.160000 240 33968ft 503kts
25-Jul-12 06:21 60.298819 -90.386162 238 33988ft 505kts
25-Jul-12 06:22 60.211593 -90.608790 237 33998ft 506kts
25-Jul-12 06:23 60.125515 -90.832129 238 34003ft 505kts
25-Jul-12 06:24 60.038616 -91.054049 238 34004ft 505kts
25-Jul-12 06:25 59.951622 -91.276300 238 34005ft 505kts
25-Jul-12 06:26 59.864288 -91.496219 237 34006ft 496kts
25-Jul-12 06:27 59.779093 -91.701613 236 34003ft 477kts
25-Jul-12 06:28 59.696496 -91.907909 237 34003ft 476kts
25-Jul-12 06:29 59.612852 -92.111566 236 34001ft 475kts
25-Jul-12 06:30 59.529630 -92.315070 237 34001ft 475kts
25-Jul-12 06:31 59.445067 -92.516420 235 34003ft 477kts
25-Jul-12 06:32 59.358943 -92.715157 236 33998ft 477kts
25-Jul-12 06:33 59.274786 -92.916189 236 33999ft 476kts
25-Jul-12 06:34 59.189446 -93.115347 235 34000ft 478kts
25-Jul-12 06:35 59.104074 -93.314896 236 33995ft 477kts
25-Jul-12 06:36 59.018229 -93.512354 235 33995ft 477kts
25-Jul-12 06:37 58.930903 -93.707421 235 33994ft 477kts
25-Jul-12 06:38 58.844460 -93.902960 235 33995ft 478kts
25-Jul-12 06:39 58.757884 -94.097989 233 33993ft 479kts
25-Jul-12 06:40 58.651524 -94.260534 221 33994ft 489kts
25-Jul-12 06:41 58.539984 -94.413869 221 33995ft 490kts
25-Jul-12 06:42 58.428213 -94.564115 220 33998ft 492kts
25-Jul-12 06:43 58.316402 -94.714390 221 33996ft 491kts
25-Jul-12 06:44 58.204581 -94.864303 221 33995ft 491kts
25-Jul-12 06:45 58.092875 -95.015173 221 33995ft 491kts
25-Jul-12 06:46 57.980756 -95.163359 220 33994ft 491kts
25-Jul-12 06:47 57.868040 -95.312536 221 33992ft 491kts
25-Jul-12 06:48 57.755543 -95.459409 220 33985ft 492kts
25-Jul-12 06:49 57.641852 -95.603015 220 33981ft 492kts
25-Jul-12 06:51 57.442041 -95.858969 216 33976ft 473kts
25-Jul-12 06:52 57.332018 -95.998845 216 33976ft 474kts
25-Jul-12 06:53 57.222859 -96.136496 216 33975ft 474kts
25-Jul-12 06:54 57.113295 -96.272928 216 33974ft 474kts
25-Jul-12 06:55 57.003956 -96.409688 216 33971ft 474kts
25-Jul-12 06:56 56.893450 -96.544151 214 33970ft 475kts
25-Jul-12 06:57 56.783121 -96.677541 216 33970ft 474kts
25-Jul-12 06:58 56.671993 -96.812739 214 33969ft 483kts
25-Jul-12 06:59 56.560306 -96.946770 214 33967ft 482kts
25-Jul-12 07:00 56.448801 -97.081029 214 33967ft 482kts
25-Jul-12 07:01 56.336811 -97.213600 214 33963ft 482kts
25-Jul-12 07:02 56.224891 -97.345990 214 33961ft 482kts
25-Jul-12 07:03 56.112621 -97.477406 213 33956ft 482kts
25-Jul-12 07:04 55.999693 -97.606698 213 33935ft 482kts
25-Jul-12 07:05 55.887160 -97.736880 213 33924ft 483kts
25-Jul-12 07:06 55.781940 -97.882999 225 33916ft 481kts
25-Jul-12 07:07 55.689664 -98.054383 227 33917ft 481kts
25-Jul-12 07:08 55.598058 -98.226547 227 33915ft 481kts
25-Jul-12 07:09 55.506976 -98.399182 227 33907ft 481kts
25-Jul-12 07:10 55.414430 -98.569166 226 33901ft 482kts
25-Jul-12 07:11 55.321971 -98.738958 227 33889ft 481kts
25-Jul-12 07:12 55.229822 -98.908897 226 33871ft 481kts
25-Jul-12 07:13 55.137046 -99.077244 226 33856ft 481kts
25-Jul-12 07:14 55.044260 -99.246640 226 33840ft 482kts
25-Jul-12 07:15 54.950932 -99.413873 226 33820ft 483kts
25-Jul-12 07:16 54.856855 -99.580263 226 33789ft 480kts
25-Jul-12 07:17 54.764760 -99.743177 221 33733ft 482kts
25-Jul-12 07:18 54.670428 -99.908148 222 33723ft 482kts
25-Jul-12 07:19 54.576534 -100.073545 222 33713ft 483kts
25-Jul-12 07:20 54.481866 -100.237299 222 33702ft 484kts
25-Jul-12 07:21 54.387047 -100.401144 223 33697ft 484kts
25-Jul-12 07:22 54.291549 -100.563520 221 33695ft 485kts
25-Jul-12 07:23 54.195666 -100.725291 222 33693ft 485kts
25-Jul-12 07:24 54.099850 -100.886845 222 33690ft 485kts
25-Jul-12 07:25 54.004038 -101.048278 222 33688ft 485kts
25-Jul-12 07:26 53.900269 -101.192579 213 33683ft 482kts
25-Jul-12 07:27 53.791923 -101.326636 214 33684ft 482kts
25-Jul-12 07:28 53.685040 -101.459809 215 33686ft 480kts
25-Jul-12 07:29 53.576392 -101.592012 214 33691ft 485kts
25-Jul-12 07:30 53.468473 -101.723599 213 33687ft 474kts
25-Jul-12 07:31 53.363740 -101.852018 217 33689ft 453kts
25-Jul-12 07:32 53.261190 -101.976682 216 33689ft 456kts
25-Jul-12 07:33 53.158124 -102.100316 216 33690ft 457kts
25-Jul-12 07:34 53.054940 -102.224870 216 33692ft 457kts
25-Jul-12 07:35 52.951426 -102.347628 216 33693ft 458kts
25-Jul-12 07:36 52.847908 -102.470423 216 33695ft 459kts
25-Jul-12 07:37 52.743459 -102.591723 215 33698ft 460kts
25-Jul-12 07:38 52.636423 -102.715828 216 33697ft 479kts
25-Jul-12 07:39 52.528450 -102.842074 216 33696ft 477kts
25-Jul-12 07:40 52.420558 -102.966696 217 33691ft 466kts
25-Jul-12 07:41 52.314685 -103.088449 218 33686ft 465kts
25-Jul-12 07:42 52.208476 -103.209874 218 33686ft 467kts
25-Jul-12 07:43 52.102077 -103.330004 217 33692ft 467kts
25-Jul-12 07:44 51.995781 -103.450489 217 33694ft 467kts
25-Jul-12 07:45 51.888719 -103.568946 217 33691ft 467kts
25-Jul-12 07:46 51.781754 -103.687317 218 33690ft 466kts
25-Jul-12 07:47 51.675028 -103.806103 217 33689ft 467kts
25-Jul-12 07:48 51.567848 -103.923698 217 33685ft 467kts
25-Jul-12 07:49 51.460956 -104.041522 217 33685ft 466kts
25-Jul-12 07:50 51.353671 -104.158280 217 33685ft 467kts
25-Jul-12 07:51 51.246117 -104.274230 217 33685ft 467kts
25-Jul-12 07:52 51.138822 -104.390267 217 33686ft 467kts
25-Jul-12 07:53 51.031980 -104.504178 217 33685ft 451kts
25-Jul-12 07:54 50.928305 -104.613785 218 33684ft 447kts
25-Jul-12 07:55 50.825221 -104.722935 218 33684ft 446kts
25-Jul-12 07:56 50.722088 -104.831566 218 33684ft 446kts
25-Jul-12 07:57 50.613006 -104.925906 210 33802ft 449kts
25-Jul-12 07:58 50.498439 -105.005064 210 33879ft 450kts
25-Jul-12 07:59 50.383925 -105.083678 209 33890ft 450kts
25-Jul-12 08:00 50.268106 -105.162999 209 33892ft 465kts
25-Jul-12 08:01 50.150294 -105.242672 209 33891ft 462kts
25-Jul-12 08:02 50.032570 -105.321834 209 33890ft 461kts
25-Jul-12 08:03 49.915050 -105.400953 209 33901ft 462kts
25-Jul-12 08:04 49.797153 -105.479341 209 33943ft 462kts
25-Jul-12 08:05 49.679102 -105.556900 209 33960ft 462kts
25-Jul-12 08:06 49.561043 -105.634609 209 33978ft 462kts
25-Jul-12 08:07 49.442964 -105.712188 209 33988ft 462kts
25-Jul-12 08:08 49.327391 -105.788134 208 33992ft 450kts
25-Jul-12 08:09 49.212365 -105.862746 208 33993ft 450kts
25-Jul-12 08:10 49.097195 -105.937179 208 33993ft 450kts
25-Jul-12 08:11 48.982714 -106.012836 212 33997ft 447kts
25-Jul-12 08:12 48.873604 -106.101805 213 33993ft 445kts
25-Jul-12 08:13 48.763757 -106.190050 213 33995ft 446kts
25-Jul-12 08:14 48.654342 -106.277933 213 33996ft 445kts
25-Jul-12 08:15 48.544078 -106.365794 212 34000ft 449kts
25-Jul-12 08:16 48.433845 -106.453303 212 34000ft 449kts
25-Jul-12 08:17 48.323411 -106.540035 212 34002ft 448kts
25-Jul-12 08:18 48.213144 -106.627167 213 34004ft 447kts
25-Jul-12 08:19 48.105782 -106.720401 214 34004ft 446kts
25-Jul-12 08:20 47.998313 -106.813501 214 34005ft 447kts
25-Jul-12 08:21 47.890902 -106.906481 214 34009ft 447kts
25-Jul-12 08:22 47.783397 -106.999279 214 34015ft 447kts
25-Jul-12 08:23 47.674993 -107.091846 213 34022ft 450kts
25-Jul-12 08:24 47.566726 -107.184541 213 34027ft 450kts
25-Jul-12 08:25 47.458209 -107.276822 213 34031ft 450kts
25-Jul-12 08:26 47.349555 -107.368469 213 34032ft 450kts
25-Jul-12 08:27 47.240951 -107.460269 213 34031ft 451kts
25-Jul-12 08:28 47.131933 -107.550566 212 34041ft 451kts
25-Jul-12 08:29 47.022960 -107.641050 213 34051ft 450kts
25-Jul-12 08:30 46.914090 -107.731413 213 34066ft 450kts
25-Jul-12 08:31 46.804943 -107.821168 212 34080ft 450kts
25-Jul-12 08:32 46.695006 -107.911791 212 34088ft 462kts
25-Jul-12 08:33 46.583087 -108.003088 212 34098ft 462kts
25-Jul-12 08:34 46.471255 -108.093958 212 34123ft 461kts
25-Jul-12 08:35 46.359544 -108.184997 211 34133ft 461kts
25-Jul-12 08:36 46.247411 -108.275092 211 34139ft 461kts
25-Jul-12 08:37 46.135412 -108.365047 211 34136ft 461kts
25-Jul-12 08:38 46.023233 -108.454501 211 34132ft 461kts
25-Jul-12 08:39 45.910837 -108.543389 211 34127ft 462kts
25-Jul-12 08:40 45.797916 -108.630721 208 34123ft 463kts
25-Jul-12 08:41 45.681080 -108.708176 208 34120ft 463kts
25-Jul-12 08:42 45.564001 -108.784943 208 34110ft 463kts
25-Jul-12 08:43 45.447160 -108.861938 208 34087ft 462kts
25-Jul-12 08:44 45.329271 -108.938988 207 34052ft 467kts
25-Jul-12 08:45 45.211154 -109.015390 207 34031ft 467kts
25-Jul-12 08:46 45.093219 -109.091922 207 34020ft 467kts
25-Jul-12 08:47 44.974978 -109.167781 206 34010ft 467kts
25-Jul-12 08:48 44.856826 -109.243443 207 34002ft 467kts
25-Jul-12 08:49 44.738604 -109.318885 206 34012ft 467kts
25-Jul-12 08:50 44.619841 -109.393978 206 34021ft 467kts
25-Jul-12 08:51 44.501572 -109.468944 206 34032ft 467kts
25-Jul-12 08:52 44.383194 -109.543223 206 34041ft 467kts
25-Jul-12 08:53 44.264641 -109.617126 206 34067ft 467kts
25-Jul-12 08:54 44.146476 -109.690966 207 34128ft 464kts
25-Jul-12 08:55 44.028468 -109.763968 206 34171ft 467kts
25-Jul-12 08:56 43.909872 -109.837394 207 34186ft 467kts
25-Jul-12 08:57 43.791609 -109.910048 207 34208ft 466kts
25-Jul-12 08:58 43.673479 -109.982140 207 34221ft 463kts
25-Jul-12 08:59 43.555571 -110.054352 207 34227ft 463kts
25-Jul-12 09:00 43.437826 -110.125969 207 34223ft 463kts
25-Jul-12 09:01 43.320119 -110.197403 207 34216ft 464kts
25-Jul-12 09:02 43.202257 -110.268364 206 34208ft 463kts
25-Jul-12 09:03 43.084416 -110.338778 206 34195ft 466kts
25-Jul-12 09:04 42.966307 -110.409559 206 34193ft 465kts
25-Jul-12 09:05 42.847699 -110.479911 206 34203ft 465kts
25-Jul-12 09:06 42.728892 -110.549634 206 34212ft 466kts
25-Jul-12 09:07 42.609986 -110.619667 206 34222ft 466kts
25-Jul-12 09:08 42.490955 -110.689344 206 34226ft 466kts
25-Jul-12 09:09 42.371735 -110.759674 206 34221ft 466kts
25-Jul-12 09:10 42.252627 -110.828920 206 34220ft 467kts
25-Jul-12 09:11 42.133070 -110.898077 206 34233ft 469kts
25-Jul-12 09:12 42.013391 -110.967394 206 34235ft 470kts
25-Jul-12 09:13 41.893492 -111.036146 206 34245ft 469kts
25-Jul-12 09:14 41.773301 -111.105116 206 34257ft 471kts
25-Jul-12 09:15 41.652865 -111.173715 206 34264ft 471kts
25-Jul-12 09:16 41.532399 -111.241921 206 34274ft 471kts
25-Jul-12 09:17 41.412193 -111.310505 206 34285ft 470kts
25-Jul-12 09:18 41.291683 -111.378281 206 34291ft 470kts
25-Jul-12 09:19 41.171312 -111.445924 206 34281ft 471kts
25-Jul-12 09:20 41.050728 -111.513131 207 34256ft 468kts
25-Jul-12 09:21 40.931028 -111.579350 207 34197ft 467kts
25-Jul-12 09:22 40.811353 -111.645918 207 34185ft 466kts
25-Jul-12 09:23 40.691737 -111.711872 207 34175ft 467kts
25-Jul-12 09:24 40.571895 -111.777913 207 34172ft 467kts
25-Jul-12 09:25 40.452070 -111.843760 208 34177ft 469kts
25-Jul-12 09:26 40.331873 -111.909434 208 34188ft 468kts
25-Jul-12 09:27 40.212295 -111.977340 209 34192ft 466kts
25-Jul-12 09:28 40.093968 -112.046791 209 34192ft 467kts
25-Jul-12 09:29 39.975534 -112.116218 209 34194ft 467kts
25-Jul-12 09:30 39.856575 -112.183859 208 34196ft 467kts
25-Jul-12 09:31 39.737551 -112.251125 207 34196ft 467kts
25-Jul-12 09:32 39.618290 -112.318401 207 34194ft 468kts
25-Jul-12 09:33 39.499012 -112.385450 207 34195ft 468kts
25-Jul-12 09:34 39.379694 -112.452455 207 34196ft 468kts
25-Jul-12 09:35 39.260312 -112.519046 207 34198ft 468kts
25-Jul-12 09:36 39.140805 -112.585068 207 34197ft 468kts
25-Jul-12 09:37 39.021290 -112.651208 207 34196ft 468kts
25-Jul-12 09:38 38.901834 -112.717205 207 34206ft 469kts
25-Jul-12 09:39 38.781798 -112.783078 206 34212ft 472kts
25-Jul-12 09:40 38.661475 -112.849147 206 34215ft 470kts
25-Jul-12 09:41 38.541058 -112.914819 206 34215ft 471kts
25-Jul-12 09:42 38.420663 -112.980462 206 34216ft 471kts
25-Jul-12 09:43 38.305484 -113.057444 215 34218ft 467kts
25-Jul-12 09:44 38.195889 -113.146776 215 34228ft 467kts
25-Jul-12 09:45 38.086389 -113.235322 215 34238ft 468kts
25-Jul-12 09:46 37.976826 -113.323714 215 34246ft 467kts
25-Jul-12 09:47 37.867366 -113.411828 214 34250ft 467kts
25-Jul-12 09:48 37.757520 -113.499185 214 34250ft 467kts
25-Jul-12 09:49 37.647369 -113.586061 214 34240ft 467kts
25-Jul-12 09:50 37.537479 -113.673264 214 34221ft 467kts
25-Jul-12 09:51 37.426561 -113.760950 213 34198ft 472kts
25-Jul-12 09:52 37.315230 -113.848373 214 34182ft 471kts
25-Jul-12 09:53 37.204042 -113.935667 213 34172ft 472kts
25-Jul-12 09:54 37.092567 -114.022505 213 34162ft 472kts
25-Jul-12 09:55 36.981223 -114.109303 213 34157ft 472kts
25-Jul-12 09:56 36.869638 -114.195719 213 34143ft 472kts
25-Jul-12 09:57 36.758085 -114.281981 213 34129ft 473kts
25-Jul-12 09:58 36.646076 -114.367027 213 34079ft 472kts
25-Jul-12 09:59 36.534579 -114.451639 212 34031ft 467kts
25-Jul-12 10:00 36.422422 -114.537255 211 34023ft 471kts
25-Jul-12 10:01 36.310933 -114.622754 211 34016ft 472kts
25-Jul-12 10:02 36.199360 -114.708094 211 34010ft 472kts
25-Jul-12 10:03 36.087687 -114.793355 211 34012ft 473kts
25-Jul-12 10:04 35.980781 -114.886261 223 34006ft 473kts
25-Jul-12 10:05 35.891435 -115.005317 227 34003ft 476kts
25-Jul-12 10:06 35.802576 -115.125623 227 34001ft 475kts
25-Jul-12 10:07 35.713981 -115.245903 227 34003ft 475kts
25-Jul-12 10:08 35.625012 -115.365737 227 34003ft 475kts
25-Jul-12 10:09 35.535872 -115.485235 227 34004ft 475kts
25-Jul-12 10:10 35.446890 -115.604808 227 34004ft 475kts
25-Jul-12 10:11 35.357511 -115.723840 227 34014ft 475kts
25-Jul-12 10:12 35.268321 -115.842760 226 34029ft 470kts
25-Jul-12 10:13 35.181259 -115.958049 225 34055ft 462kts
25-Jul-12 10:14 35.094078 -116.072931 225 34066ft 462kts
25-Jul-12 10:15 35.007033 -116.187898 225 34076ft 462kts
25-Jul-12 10:16 34.919405 -116.302714 225 34077ft 461kts
25-Jul-12 10:17 34.831959 -116.417134 225 34076ft 461kts
25-Jul-12 10:18 34.736364 -116.520194 216 33017ft 459kts
25-Jul-12 10:19 34.634439 -116.615870 216 30623ft 468kts
25-Jul-12 10:20 34.532578 -116.711411 216 28226ft 454kts
25-Jul-12 10:21 34.434349 -116.803876 217 25828ft 447kts
25-Jul-12 10:22 34.336866 -116.895010 217 23429ft 434kts
25-Jul-12 10:23 34.243359 -116.982037 216 21030ft 417kts
25-Jul-12 10:24 34.152909 -117.066074 217 18629ft 405kts
25-Jul-12 10:25 34.084328 -117.161592 242 17376ft 364kts
25-Jul-12 10:26 34.043942 -117.271071 263 15468ft 353kts
25-Jul-12 10:27 34.034893 -117.387093 262 13778ft 343kts
25-Jul-12 10:28 34.024224 -117.500615 262 12578ft 338kts
25-Jul-12 10:29 34.013571 -117.612305 262 11378ft 333kts
25-Jul-12 10:30 34.003124 -117.720954 262 9700ft 312kts
25-Jul-12 10:31 33.993272 -117.822139 262 7898ft 298kts
25-Jul-12 10:32 33.983926 -117.917865 263 6840ft 276kts
25-Jul-12 10:33 33.975141 -118.007106 264 5445ft 257kts
25-Jul-12 10:34 33.967360 -118.090192 262 4779ft 247kts
25-Jul-12 10:35 33.959290 -118.169674 262 3566ft 230kts
25-Jul-12 10:36 33.951946 -118.241515 263 2420ft 209kts
25-Jul-12 10:37 33.945594 -118.303701 263 1378ft 146kts
25-Jul-12 10:38 33.940808 -118.350470 263 677ft 139kts
25-Jul-12 10:39 33.936207 -118.395432 262 138ft 106kts
25-Jul-12 10:40 33.936534 -118.403611 300 138ft 15kts
25-Jul-12 10:41 33.939010 -118.407321 280 138ft 20kts
25-Jul-12 10:42 33.940366 -118.408871 262 138ft 0kts
25-Jul-12 10:43 33.940366 -118.408871 262 138ft 0kts

Navigation Log

Ident Type
Flight plan parsing failed, navigation log unavailable